G4RHR Weather Reports


time (UTC)temp
C
wind
direction
speed
KPH
gust
KPH
rain 1hr
cm
rain 24hr
cm
rain mn
cm
humidity
%
barometer
mb
20260902102038 20 199 4.8 14.5 0.00 0.00 0.00 69 1018.2
20260901195038 18 196 1.6 4.8 0.00 0.00 0.00 74 1017.8
20260901194026 18 196 1.6 4.8 0.00 0.00 0.00 73 1017.7
20260901193053 18 196 3.2 6.4 0.00 0.00 0.00 71 1017.6
20260901192031 18 196 3.2 8.0 0.00 0.00 0.00 70 1017.6
20260901191040 18 196 4.8 11.3 0.00 0.00 0.00 70 1017.8
20260901190115 19 196 6.4 9.7 0.00 0.00 0.00 69 1017.9
20260901185032 19 200 1.6 6.4 0.00 0.00 0.00 69 1017.7
20260901184026 19 198 4.8 8.0 0.00 0.00 0.00 68 1017.7
20260901183039 20 196 3.2 6.4 0.00 0.00 0.00 67 1017.6
20260901182048 20 196 3.2 9.7 0.00 0.00 0.00 66 1017.4
20260901181040 20 196 8.0 11.3 0.00 0.00 0.00 66 1017.4
20260901180031 20 204 3.2 11.3 0.00 0.00 0.00 65 1017.5
20260901175043 21 205 1.6 12.9 0.00 0.00 0.00 63 1017.4
20260901174035 21 360 1.6 9.7 0.00 0.00 0.00 50 1017.3
20260901173045 22 360 3.2 12.9 0.00 0.00 0.00 47 1017.4
20260901172035 22 253 1.6 14.5 0.00 0.00 0.00 47 1017.3
20260901171028 22 216 3.2 12.9 0.00 0.00 0.00 48 1017.4
20260901170041 22 247 3.2 12.9 0.00 0.00 0.00 47 1017.4
20260901165031 22 256 4.8 17.7 0.00 0.00 0.00 46 1017.3
20260901164041 22 262 3.2 14.5 0.00 0.00 0.00 46 1017.5
20260901163028 22 266 6.4 16.1 0.00 0.00 0.00 46 1017.6
20260901162038 22 267 8.0 12.9 0.00 0.00 0.00 47 1017.6
20260901161046 22 272 8.0 20.9 0.00 0.00 0.00 46 1017.8
20260901160034 22 261 12.9 20.9 0.00 0.00 0.00 46 1017.9
20260901143108 23 217 9.7 27.4 0.00 0.00 0.00 43 1017.8
20260901142051 23 213 12.9 22.5 0.00 0.00 0.00 44 1018.0
20260901141043 23 196 11.3 19.3 0.00 0.00 0.00 53 1018.1
20260901140034 22 190 12.9 24.1 0.00 0.00 0.00 52 1018.0
20260901135042 22 163 16.1 25.7 0.00 0.00 0.00 53 1018.0
20260901134035 23 200 11.3 20.9 0.00 0.00 0.00 45 1018.0
20260901133025 22 207 9.7 22.5 0.00 0.00 0.00 46 1018.1
20260901132039 22 216 12.9 19.3 0.00 0.00 0.00 47 1018.0
20260901131033 22 258 6.4 24.1 0.00 0.00 0.00 47 1018.2
20260901125033 22 266 11.3 16.1 0.00 0.00 0.00 48 1018.4
20260901124028 22 261 4.8 16.1 0.00 0.00 0.00 48 1018.4
20260901123032 22 210 12.9 17.7 0.00 0.00 0.00 49 1018.5
20260901122103 21 217 3.2 16.1 0.00 0.00 0.00 49 1018.6
20260901121032 22 259 6.4 19.3 0.00 0.00 0.00 50 1018.6
20260901120044 21 255 4.8 11.3 0.00 0.00 0.00 50 1018.6
20260901115052 21 201 4.8 17.7 0.00 0.00 0.00 52 1018.6
20260901114041 21 212 6.4 24.1 0.00 0.00 0.00 50 1018.7
20260901113051 21 206 4.8 16.1 0.00 0.00 0.00 50 1018.6
20260901112039 21 210 4.8 16.1 0.00 0.00 0.00 52 1018.7
20260901111030 21 212 3.2 17.7 0.00 0.00 0.00 54 1018.7
20260901110040 21 217 4.8 19.3 0.00 0.00 0.00 54 1018.8
20260901105031 20 255 4.8 19.3 0.00 0.00 0.00 56 1018.9
20260901104027 20 360 8.0 20.9 0.00 0.00 0.00 55 1018.9
20260901103038 20 360 6.4 17.7 0.00 0.00 0.00 56 1018.9